hwlogo.jpg (8581 bytes)
Home Your Weather Products Services Weather On Your Site Contact
HW Version Logo
Weather Info
Your Weather (Options)
Canadian Weather
International Weather
Enter your " Place, State", US Zip Code or ICAO:  
Forecast Information Radar Information
Kelowna, British Columbia, Canada  Lat: 49.97N, Lon: 119.37W
ICAO Used: CYLW
Current Conditions
Updated: 5:00 AM PST MON FEB 19 2018
Sun & Moon Information
Clear
Clear
Temp: -18°C
Humidity: 91%
Wind Speed: N 6 MPH
Barometer: 1022 mb
Dewpoint: -19°C
Heat Index: -18°C
Wind Chill: -24°C
Civil Twilight: 6:30 AM PST Moon Phase:
Waxing Crescent Moon
Sunrise: 7:03 AM PST
Sunset: 5:19 PM PST
Civil Twilight: 5:52 PM PST
Forecast for Kelowna, BC:
(Forecast based on TAF for )
0539 AM PST MON FEB 19 2018
  
MORNING AFTERNOON EVENING OVERNIGHT
Partly
Cloudy
Partly
Cloudy
Partly
Cloudy
Partly
Cloudy
ZoneCast:
Dated: 0539 AM PST MON FEB 19 2018
Morning...Partly cloudy with winds from the north at 6 mph.

Afternoon...Partly cloudy with winds from the north at 6 mph.

Evening...Partly cloudy with winds from the north at 6 mph.

Overnight...Partly cloudy with winds from the north at 6 mph.

Original Encoded TAF:
Dated: 0539 AM PST MON FEB 19 2018
2018/02/19 13:39
TAF CYLW 191238Z 1913/2001 35005KT P6SM SCT080 
      RMK FCST BASED ON AUTO OBS. NXT FCST BY 191900Z